Notice: Undefined index: language in /home/u294900127/public_html/vam/index.php on line 31
Aeroboteco

 INFORMAÇÕES METEOROLÓGICAS
METAR FOR UKHH
ADDS - METARS form results

(2320 UTC 20 October 2017)
Data provider http://aviationweather.gov/adds/metars/
 
METAR text: UKHH 202300Z 04004MPS 010V070 9999 OVC033 09/03 Q1019 R07/0///66 NOSIG
Conditions at: UKHH (HAR'KOV/OSNOVA , UA) observed 2300 UTC 20 October 2017
Temperature: 9.0°C (48°F)
Dewpoint: 3.0°C (37°F) [RH = 66%]
Pressure (altimeter): 30.09 inches Hg (1019.0 mb)
Winds: from the NE (40 degrees) at 9 MPH (8 knots; 4.2 m/s)
Visibility: 6 or more miles (10+ km)
Ceiling: 3300 feet AGL
Clouds: overcast cloud deck at 3300 feet AGL
Weather: no significant weather observed at this time

METAR text: UKHH 202230Z 04004MPS 9999 OVC033 09/04 Q1019 R07/0///66 NOSIG
Conditions at: UKHH (HAR'KOV/OSNOVA , UA) observed 2230 UTC 20 October 2017
Temperature: 9.0°C (48°F)
Dewpoint: 4.0°C (39°F) [RH = 71%]
Pressure (altimeter): 30.09 inches Hg (1019.0 mb)
Winds: from the NE (40 degrees) at 9 MPH (8 knots; 4.2 m/s)
Visibility: 6 or more miles (10+ km)
Ceiling: 3300 feet AGL
Clouds: overcast cloud deck at 3300 feet AGL
Weather: no significant weather observed at this time

Forecast for: UKHH (HAR'KOV/OSNOVA , UA)
Text: TAF UKHH 202310Z 2100/2109 04005MPS 6000 BKN010
Forecast period: 0000 to 0900 UTC 21 October 2017
Forecast type: FROM: standard forecast or significant change
Winds: from the NE (40 degrees) at 12 MPH (10 knots; 5.2 m/s)
Visibility: 4 miles (6 km)
Ceiling: 1000 feet AGL
Clouds: broken clouds at 1000 feet AGL
Weather: no significant weather forecast for this period
Text: TEMPO 2100/2106 2100 -SHRA BR BKN007 BKN015CB TX10/2109Z TN05/2103Z
Forecast period: 0000 to 0600 UTC 21 October 2017
Forecast type: TEMPORARY: The following changes expected for less than half the time period
Visibility: 1.30 miles (2.09 km)
Ceiling: 700 feet AGL
Clouds: broken clouds at 700 feet AGL
broken clouds at 1500 feet AGL
Weather: -SHRA BR  (light rain showers, mist)

 MAPA DO AEROPORTO

 INFORMAÇÕES DA PISTA
Pista 08 Tamanho da pista 7285 ft Largura da pista 165 ft
Elevação da pista 494 ft Ranhura da pista 0 ft Proa da pista 90
Pista 26 Tamanho da pista 7285 ft Largura da pista 165 ft
Elevação da pista 485 ft Ranhura da pista 0 ft Proa da pista 270

 FREQUÊNCIAS DO AEROPORTO
Tipo APP Nome KHARKIV RA Frequência 118.1 MHZ
Tipo GND Nome KHARKIV GN Frequência 119 MHZ
Tipo PMSV Nome KHARKIV ME Frequência 127.6 MHZ
Tipo TWR Nome KHARKIV TW Frequência 118.1 MHZ

 AUXÍLIOS DE NAVEGAÇÃO PRÓXIMOS AO AEROPORTO
Tipo NDB Nome Kharkiv Frequência 678 KHZ
Tipo NDB Nome Kharkiv Frequência 330 KHZ
Tipo NDB Nome Kharkiv Frequência 330 KHZ
Tipo VOR-DME Nome Kharkiv Frequência 116500 KHZ
Tipo NDB Nome Kharkiv Frequência 678 KHZ



Powered by Virtual Airlines Manager [v2.6.2]